sensor_id;sensor_type;location;lat;lon;timestamp;pressure;altitude;pressure_sealevel;temperature;humidity
31403;BME280;18039;52.188;21.024;2023-05-23T00:00:24;76041.56;;;-141.45;65.30
31403;BME280;18039;52.188;21.024;2023-05-23T00:03:12;76041.56;;;-141.45;65.59
31403;BME280;18039;52.188;21.024;2023-05-23T00:05:39;76051.69;;;-141.45;65.90
31403;BME280;18039;52.188;21.024;2023-05-23T00:08:06;76047.66;;;-141.45;65.93
31403;BME280;18039;52.188;21.024;2023-05-23T00:10:33;76057.78;;;-141.45;66.16
31403;BME280;18039;52.188;21.024;2023-05-23T00:13:01;76061.84;;;-141.45;66.27
31403;BME280;18039;52.188;21.024;2023-05-23T00:15:28;76065.88;;;-141.45;66.42
31403;BME280;18039;52.188;21.024;2023-05-23T00:17:56;76067.91;;;-141.45;66.53
31403;BME280;18039;52.188;21.024;2023-05-23T00:20:23;76065.88;;;-141.45;66.66
31403;BME280;18039;52.188;21.024;2023-05-23T00:22:51;76069.94;;;-141.45;66.71
31403;BME280;18039;52.188;21.024;2023-05-23T00:25:19;76065.88;;;-141.45;66.88
31403;BME280;18039;52.188;21.024;2023-05-23T00:27:48;76074.00;;;-141.45;66.92
31403;BME280;18039;52.188;21.024;2023-05-23T00:30:15;76071.97;;;-141.45;66.94
31403;BME280;18039;52.188;21.024;2023-05-23T00:32:44;76069.94;;;-141.45;67.00
31403;BME280;18039;52.188;21.024;2023-05-23T00:35:11;76080.06;;;-141.45;67.13
31403;BME280;18039;52.188;21.024;2023-05-23T00:37:38;76078.06;;;-141.45;67.43
31403;BME280;18039;52.188;21.024;2023-05-23T00:40:06;76090.22;;;-141.45;67.64
31403;BME280;18039;52.188;21.024;2023-05-23T00:42:34;76088.19;;;-141.45;67.57
31403;BME280;18039;52.188;21.024;2023-05-23T00:45:01;76098.31;;;-141.45;67.56
31403;BME280;18039;52.188;21.024;2023-05-23T00:47:29;76106.41;;;-141.45;67.69
31403;BME280;18039;52.188;21.024;2023-05-23T00:49:56;76102.38;;;-141.45;67.78
31403;BME280;18039;52.188;21.024;2023-05-23T00:52:24;76106.41;;;-141.45;67.98
31403;BME280;18039;52.188;21.024;2023-05-23T00:54:51;76118.59;;;-141.45;68.09
31403;BME280;18039;52.188;21.024;2023-05-23T00:57:19;76126.69;;;-141.45;68.17
31403;BME280;18039;52.188;21.024;2023-05-23T00:59:46;76126.69;;;-141.45;68.14
31403;BME280;18039;52.188;21.024;2023-05-23T01:02:14;76126.69;;;-141.45;68.27
31403;BME280;18039;52.188;21.024;2023-05-23T01:04:42;76136.81;;;-141.45;68.24
31403;BME280;18039;52.188;21.024;2023-05-23T01:07:10;76138.84;;;-141.45;68.44
31403;BME280;18039;52.188;21.024;2023-05-23T01:09:38;76146.97;;;-141.45;68.51
31403;BME280;18039;52.188;21.024;2023-05-23T01:12:38;76142.91;;;-141.45;68.74
31403;BME280;18039;52.188;21.024;2023-05-23T01:15:06;76155.06;;;-141.45;69.02
31403;BME280;18039;52.188;21.024;2023-05-23T01:17:38;76151.00;;;-141.45;69.05
31403;BME280;18039;52.188;21.024;2023-05-23T01:20:23;76159.13;;;-141.45;69.16
31403;BME280;18039;52.188;21.024;2023-05-23T01:28:11;76167.22;;;-141.45;69.71
31403;BME280;18039;52.188;21.024;2023-05-23T01:30:43;76169.25;;;-141.45;69.92
31403;BME280;18039;52.188;21.024;2023-05-23T01:33:13;76171.28;;;-141.45;69.79
31403;BME280;18039;52.188;21.024;2023-05-23T01:35:42;76171.28;;;-141.45;69.99
31403;BME280;18039;52.188;21.024;2023-05-23T01:38:09;76171.28;;;-141.45;69.89
31403;BME280;18039;52.188;21.024;2023-05-23T01:40:38;76173.31;;;-141.45;69.99
31403;BME280;18039;52.188;21.024;2023-05-23T01:43:05;76175.34;;;-141.45;70.11
31403;BME280;18039;52.188;21.024;2023-05-23T01:45:33;76183.44;;;-141.45;70.37
31403;BME280;18039;52.188;21.024;2023-05-23T01:48:02;76179.38;;;-141.45;70.36
31403;BME280;18039;52.188;21.024;2023-05-23T01:50:32;76183.44;;;-141.45;70.54
31403;BME280;18039;52.188;21.024;2023-05-23T01:52:59;76183.44;;;-141.45;70.62
31403;BME280;18039;52.188;21.024;2023-05-23T01:55:27;76185.47;;;-141.45;70.54
31403;BME280;18039;52.188;21.024;2023-05-23T01:57:55;76187.50;;;-141.45;70.86
31403;BME280;18039;52.188;21.024;2023-05-23T02:00:23;76183.44;;;-141.45;70.98
31403;BME280;18039;52.188;21.024;2023-05-23T02:02:51;76183.44;;;-141.45;71.25
31403;BME280;18039;52.188;21.024;2023-05-23T02:05:19;76191.56;;;-141.45;71.20
31403;BME280;18039;52.188;21.024;2023-05-23T02:07:46;76193.56;;;-141.45;71.34
31403;BME280;18039;52.188;21.024;2023-05-23T02:10:16;76189.53;;;-141.45;71.48
31403;BME280;18039;52.188;21.024;2023-05-23T02:12:43;76191.56;;;-141.45;71.34
31403;BME280;18039;52.188;21.024;2023-05-23T02:15:10;76191.56;;;-141.45;71.50
31403;BME280;18039;52.188;21.024;2023-05-23T02:17:38;76195.59;;;-141.45;71.55
31403;BME280;18039;52.188;21.024;2023-05-23T02:20:07;76191.56;;;-141.45;71.74
31403;BME280;18039;52.188;21.024;2023-05-23T02:22:36;76199.66;;;-141.45;71.98
31403;BME280;18039;52.188;21.024;2023-05-23T02:25:03;76193.56;;;-141.45;72.27
31403;BME280;18039;52.188;21.024;2023-05-23T02:27:31;76199.66;;;-141.45;72.45
31403;BME280;18039;52.188;21.024;2023-05-23T02:29:58;76203.72;;;-141.45;72.61
31403;BME280;18039;52.188;21.024;2023-05-23T02:32:27;76205.75;;;-141.45;72.91
31403;BME280;18039;52.188;21.024;2023-05-23T02:34:55;76209.78;;;-141.45;72.92
31403;BME280;18039;52.188;21.024;2023-05-23T02:37:23;76203.72;;;-141.45;73.02
31403;BME280;18039;52.188;21.024;2023-05-23T02:39:50;76205.75;;;-141.45;73.14
31403;BME280;18039;52.188;21.024;2023-05-23T02:42:18;76207.78;;;-141.45;73.22
31403;BME280;18039;52.188;21.024;2023-05-23T02:44:45;76211.81;;;-141.45;73.38
31403;BME280;18039;52.188;21.024;2023-05-23T02:47:12;76207.78;;;-141.45;73.47
31403;BME280;18039;52.188;21.024;2023-05-23T02:49:39;76211.81;;;-141.45;73.68
31403;BME280;18039;52.188;21.024;2023-05-23T02:52:07;76211.81;;;-141.45;73.86
31403;BME280;18039;52.188;21.024;2023-05-23T02:54:35;76211.81;;;-141.45;74.06
31403;BME280;18039;52.188;21.024;2023-05-23T02:57:02;76215.88;;;-141.45;74.31
31403;BME280;18039;52.188;21.024;2023-05-23T02:59:33;76211.81;;;-141.45;74.39
31403;BME280;18039;52.188;21.024;2023-05-23T03:02:00;76207.78;;;-141.45;74.36
31403;BME280;18039;52.188;21.024;2023-05-23T03:04:27;76205.75;;;-141.45;74.39
31403;BME280;18039;52.188;21.024;2023-05-23T03:06:55;76207.78;;;-141.45;74.36
31403;BME280;18039;52.188;21.024;2023-05-23T03:09:25;76199.66;;;-141.45;74.24
31403;BME280;18039;52.188;21.024;2023-05-23T03:11:53;76195.59;;;-141.45;74.23
31403;BME280;18039;52.188;21.024;2023-05-23T03:14:20;76191.56;;;-141.45;74.30
31403;BME280;18039;52.188;21.024;2023-05-23T03:16:48;76191.56;;;-141.45;74.40
31403;BME280;18039;52.188;21.024;2023-05-23T03:19:15;76195.59;;;-141.45;74.30
31403;BME280;18039;52.188;21.024;2023-05-23T03:21:44;76187.50;;;-141.45;74.53
31403;BME280;18039;52.188;21.024;2023-05-23T03:24:11;76183.44;;;-141.45;74.51
31403;BME280;18039;52.188;21.024;2023-05-23T03:26:38;76179.38;;;-141.45;74.55
31403;BME280;18039;52.188;21.024;2023-05-23T03:29:05;76183.44;;;-141.45;74.56
31403;BME280;18039;52.188;21.024;2023-05-23T03:31:33;76183.44;;;-141.45;74.56
31403;BME280;18039;52.188;21.024;2023-05-23T03:34:01;76175.34;;;-141.45;74.58
31403;BME280;18039;52.188;21.024;2023-05-23T03:36:28;76167.22;;;-141.45;74.69
31403;BME280;18039;52.188;21.024;2023-05-23T03:38:59;76163.19;;;-141.45;74.58
31403;BME280;18039;52.188;21.024;2023-05-23T03:41:27;76155.06;;;-141.45;74.34
31403;BME280;18039;52.188;21.024;2023-05-23T03:43:54;76146.97;;;-141.45;74.01
31403;BME280;18039;52.188;21.024;2023-05-23T03:46:22;76138.84;;;-141.45;73.81
31403;BME280;18039;52.188;21.024;2023-05-23T03:48:49;76122.63;;;-141.45;73.44
31403;BME280;18039;52.188;21.024;2023-05-23T03:51:17;76114.53;;;-141.45;73.07
31403;BME280;18039;52.188;21.024;2023-05-23T03:53:44;76100.34;;;-141.45;72.86
31403;BME280;18039;52.188;21.024;2023-05-23T03:56:13;76088.19;;;-141.45;72.16
31403;BME280;18039;52.188;21.024;2023-05-23T03:58:40;76067.91;;;-141.45;71.82
31403;BME280;18039;52.188;21.024;2023-05-23T04:01:13;76055.75;;;-141.45;71.35
31403;BME280;18039;52.188;21.024;2023-05-23T04:03:40;76033.47;;;-141.45;70.49
31403;BME280;18039;52.188;21.024;2023-05-23T04:06:08;76021.31;;;-141.45;70.11
31403;BME280;18039;52.188;21.024;2023-05-23T04:08:42;75996.97;;;-141.45;69.50
31403;BME280;18039;52.188;21.024;2023-05-23T04:11:10;75980.75;;;-141.45;68.76
31403;BME280;18039;52.188;21.024;2023-05-23T04:13:39;75966.56;;;-141.45;67.89
31403;BME280;18039;52.188;21.024;2023-05-23T04:16:10;75942.25;;;-141.45;67.86
31403;BME280;18039;52.188;21.024;2023-05-23T04:18:37;75922.00;;;-141.45;67.39
31403;BME280;18039;52.188;21.024;2023-05-23T04:21:07;75903.75;;;-141.45;66.15
31403;BME280;18039;52.188;21.024;2023-05-23T04:23:38;75891.59;;;-141.45;65.98
31403;BME280;18039;52.188;21.024;2023-05-23T04:26:06;75875.38;;;-141.45;65.20
31403;BME280;18039;52.188;21.024;2023-05-23T04:28:39;75859.16;;;-141.45;64.34
31403;BME280;18039;52.188;21.024;2023-05-23T04:31:07;75847.00;;;-141.45;63.96
31403;BME280;18039;52.188;21.024;2023-05-23T04:33:35;75842.94;;;-141.45;63.47
31403;BME280;18039;52.188;21.024;2023-05-23T04:36:03;75855.09;;;-141.45;62.66
31403;BME280;18039;52.188;21.024;2023-05-23T04:38:31;75836.88;;;-141.45;62.85
31403;BME280;18039;52.188;21.024;2023-05-23T04:40:59;75806.47;;;-141.45;62.68
31403;BME280;18039;52.188;21.024;2023-05-23T04:43:26;75778.09;;;-141.45;60.83
31403;BME280;18039;52.188;21.024;2023-05-23T04:46:02;75772.00;;;-141.45;59.31
31403;BME280;18039;52.188;21.024;2023-05-23T04:48:36;75733.50;;;-141.45;59.74
31403;BME280;18039;52.188;21.024;2023-05-23T04:51:05;75684.88;;;-141.45;58.19
31403;BME280;18039;52.188;21.024;2023-05-23T04:53:33;75652.44;;;-141.45;57.01
31403;BME280;18039;52.188;21.024;2023-05-23T04:56:01;75607.88;;;-141.45;57.74
31403;BME280;18039;52.188;21.024;2023-05-23T04:58:29;75611.91;;;-141.45;53.69
31403;BME280;18039;52.188;21.024;2023-05-23T05:01:02;75611.91;;;-141.45;55.32
31403;BME280;18039;52.188;21.024;2023-05-23T05:03:30;75575.44;;;-141.45;55.53
31403;BME280;18039;52.188;21.024;2023-05-23T05:05:58;75538.97;;;-141.45;54.65
31403;BME280;18039;52.188;21.024;2023-05-23T05:08:26;75555.19;;;-141.45;53.56
31403;BME280;18039;52.188;21.024;2023-05-23T05:10:54;75569.34;;;-141.45;53.45
31403;BME280;18039;52.188;21.024;2023-05-23T05:13:22;75603.81;;;-141.45;54.58
31403;BME280;18039;52.188;21.024;2023-05-23T05:15:52;75603.81;;;-141.45;53.88
31403;BME280;18039;52.188;21.024;2023-05-23T05:18:20;75555.19;;;-141.45;54.55
31403;BME280;18039;52.188;21.024;2023-05-23T05:20:48;75502.50;;;-141.45;53.28
31403;BME280;18039;52.188;21.024;2023-05-23T05:23:15;75461.97;;;-141.45;52.78
31403;BME280;18039;52.188;21.024;2023-05-23T05:25:43;75478.16;;;-141.45;52.33
31403;BME280;18039;52.188;21.024;2023-05-23T05:28:12;75486.28;;;-141.45;52.69
31403;BME280;18039;52.188;21.024;2023-05-23T05:30:43;75502.50;;;-141.45;52.42
31403;BME280;18039;52.188;21.024;2023-05-23T05:33:12;75502.50;;;-141.45;53.01
31403;BME280;18039;52.188;21.024;2023-05-23T05:35:40;75514.66;;;-141.45;52.54
31403;BME280;18039;52.188;21.024;2023-05-23T05:38:07;75526.81;;;-141.45;52.19
31403;BME280;18039;52.188;21.024;2023-05-23T05:40:38;75534.91;;;-141.45;53.12
31403;BME280;18039;52.188;21.024;2023-05-23T05:43:06;75514.66;;;-141.45;53.02
31403;BME280;18039;52.188;21.024;2023-05-23T05:45:33;75506.53;;;-141.45;52.97
31403;BME280;18039;52.188;21.024;2023-05-23T05:48:01;75486.28;;;-141.45;52.43
31403;BME280;18039;52.188;21.024;2023-05-23T05:50:29;75478.16;;;-141.45;51.25
31403;BME280;18039;52.188;21.024;2023-05-23T05:52:56;75486.28;;;-141.45;51.65
31403;BME280;18039;52.188;21.024;2023-05-23T05:55:24;75474.13;;;-141.45;51.45
31403;BME280;18039;52.188;21.024;2023-05-23T05:57:54;75463.97;;;-141.45;51.46
31403;BME280;18039;52.188;21.024;2023-05-23T06:00:23;75449.81;;;-141.45;51.29
31403;BME280;18039;52.188;21.024;2023-05-23T06:02:55;75433.59;;;-141.45;50.95
31403;BME280;18039;52.188;21.024;2023-05-23T06:05:34;75437.63;;;-141.45;51.28
31403;BME280;18039;52.188;21.024;2023-05-23T06:08:03;75421.44;;;-141.45;51.48
31403;BME280;18039;52.188;21.024;2023-05-23T06:10:30;75413.31;;;-141.45;50.97
31403;BME280;18039;52.188;21.024;2023-05-23T06:12:58;75403.19;;;-141.45;50.71
31403;BME280;18039;52.188;21.024;2023-05-23T06:15:26;75397.13;;;-141.45;49.54
31403;BME280;18039;52.188;21.024;2023-05-23T06:17:53;75393.06;;;-141.45;49.84
31403;BME280;18039;52.188;21.024;2023-05-23T06:20:21;75384.97;;;-141.45;49.30
31403;BME280;18039;52.188;21.024;2023-05-23T06:22:48;75370.78;;;-141.45;49.66
31403;BME280;18039;52.188;21.024;2023-05-23T06:25:17;75356.59;;;-141.45;50.28
31403;BME280;18039;52.188;21.024;2023-05-23T06:27:45;75344.44;;;-141.45;49.82
31403;BME280;18039;52.188;21.024;2023-05-23T06:30:13;75344.44;;;-141.45;49.68
31403;BME280;18039;52.188;21.024;2023-05-23T06:32:40;75334.28;;;-141.45;49.55
31403;BME280;18039;52.188;21.024;2023-05-23T06:35:08;75320.13;;;-141.45;49.06
31403;BME280;18039;52.188;21.024;2023-05-23T06:37:36;75309.97;;;-141.45;48.47
31403;BME280;18039;52.188;21.024;2023-05-23T06:40:04;75312.00;;;-141.45;47.99
31403;BME280;18039;52.188;21.024;2023-05-23T06:42:31;75305.94;;;-141.45;48.34
31403;BME280;18039;52.188;21.024;2023-05-23T06:45:16;75299.84;;;-141.45;48.41
31403;BME280;18039;52.188;21.024;2023-05-23T06:47:43;75287.69;;;-141.45;48.44
31403;BME280;18039;52.188;21.024;2023-05-23T06:50:12;75267.44;;;-141.45;49.06
31403;BME280;18039;52.188;21.024;2023-05-23T06:52:40;75255.25;;;-141.45;48.78
31403;BME280;18039;52.188;21.024;2023-05-23T06:55:10;75239.06;;;-141.45;48.68
31403;BME280;18039;52.188;21.024;2023-05-23T06:57:43;75218.78;;;-141.45;47.90
31403;BME280;18039;52.188;21.024;2023-05-23T07:00:11;75218.78;;;-141.45;47.46
31403;BME280;18039;52.188;21.024;2023-05-23T07:02:54;75206.63;;;-141.45;45.96
31403;BME280;18039;52.188;21.024;2023-05-23T07:05:22;75202.59;;;-141.45;45.33
31403;BME280;18039;52.188;21.024;2023-05-23T07:07:50;75194.47;;;-141.45;45.73
31403;BME280;18039;52.188;21.024;2023-05-23T07:10:18;75186.38;;;-141.45;45.69
31403;BME280;18039;52.188;21.024;2023-05-23T07:12:48;75170.16;;;-141.45;45.66
31403;BME280;18039;52.188;21.024;2023-05-23T07:15:16;75162.06;;;-141.45;45.33
31403;BME280;18039;52.188;21.024;2023-05-23T07:17:54;75162.06;;;-141.45;45.50
31403;BME280;18039;52.188;21.024;2023-05-23T07:20:22;75147.88;;;-141.45;45.27
31403;BME280;18039;52.188;21.024;2023-05-23T07:22:55;75137.75;;;-141.45;44.63
31403;BME280;18039;52.188;21.024;2023-05-23T07:25:25;75137.75;;;-141.45;44.58
31403;BME280;18039;52.188;21.024;2023-05-23T07:27:53;75133.69;;;-141.45;43.37
31403;BME280;18039;52.188;21.024;2023-05-23T07:30:22;75121.53;;;-141.45;43.88
31403;BME280;18039;52.188;21.024;2023-05-23T07:32:49;75109.38;;;-141.45;42.92
31403;BME280;18039;52.188;21.024;2023-05-23T07:35:18;75093.16;;;-141.45;43.28
31403;BME280;18039;52.188;21.024;2023-05-23T07:37:54;75113.44;;;-141.45;42.84
31403;BME280;18039;52.188;21.024;2023-05-23T07:40:22;75081.00;;;-141.45;42.84
31403;BME280;18039;52.188;21.024;2023-05-23T07:42:49;75064.81;;;-141.45;41.70
31403;BME280;18039;52.188;21.024;2023-05-23T07:45:16;75042.50;;;-141.45;42.70
31403;BME280;18039;52.188;21.024;2023-05-23T07:47:43;75040.47;;;-141.45;42.59
31403;BME280;18039;52.188;21.024;2023-05-23T07:50:12;75032.38;;;-141.45;42.51
31403;BME280;18039;52.188;21.024;2023-05-23T07:52:39;75016.16;;;-141.45;42.37
31403;BME280;18039;52.188;21.024;2023-05-23T07:55:11;75008.06;;;-141.45;41.82
31403;BME280;18039;52.188;21.024;2023-05-23T07:57:38;74999.97;;;-141.45;41.89
31403;BME280;18039;52.188;21.024;2023-05-23T08:00:08;74993.88;;;-141.45;42.01
31403;BME280;18039;52.188;21.024;2023-05-23T08:02:40;74979.69;;;-141.45;42.63
31403;BME280;18039;52.188;21.024;2023-05-23T08:05:16;74967.53;;;-141.45;41.52
31403;BME280;18039;52.188;21.024;2023-05-23T08:07:47;74951.34;;;-141.45;40.87
31403;BME280;18039;52.188;21.024;2023-05-23T08:10:15;74947.28;;;-141.45;41.14
31403;BME280;18039;52.188;21.024;2023-05-23T08:12:42;74949.31;;;-141.45;40.16
31403;BME280;18039;52.188;21.024;2023-05-23T08:15:14;74943.22;;;-141.45;40.74
31403;BME280;18039;52.188;21.024;2023-05-23T08:17:45;74941.19;;;-141.45;40.84
31403;BME280;18039;52.188;21.024;2023-05-23T08:20:13;74935.13;;;-141.45;39.78
31403;BME280;18039;52.188;21.024;2023-05-23T08:22:40;74927.03;;;-141.45;38.74
31403;BME280;18039;52.188;21.024;2023-05-23T08:25:09;74931.06;;;-141.45;38.90
31403;BME280;18039;52.188;21.024;2023-05-23T08:27:38;74922.97;;;-141.45;40.00
31403;BME280;18039;52.188;21.024;2023-05-23T08:30:24;74927.03;;;-141.45;39.72
31403;BME280;18039;52.188;21.024;2023-05-23T08:32:53;74914.88;;;-141.45;38.94
31403;BME280;18039;52.188;21.024;2023-05-23T08:35:22;74912.84;;;-141.45;38.26
31403;BME280;18039;52.188;21.024;2023-05-23T08:37:49;74910.81;;;-141.45;38.75
31403;BME280;18039;52.188;21.024;2023-05-23T08:40:20;74890.56;;;-141.45;38.61
31403;BME280;18039;52.188;21.024;2023-05-23T08:43:01;74878.41;;;-141.45;38.65
31403;BME280;18039;52.188;21.024;2023-05-23T08:45:29;74862.19;;;-141.45;38.17
31403;BME280;18039;52.188;21.024;2023-05-23T08:47:59;74866.25;;;-141.45;38.50
31403;BME280;18039;52.188;21.024;2023-05-23T08:50:29;74854.09;;;-141.45;37.81
31403;BME280;18039;52.188;21.024;2023-05-23T08:52:57;74850.03;;;-141.45;38.14
31403;BME280;18039;52.188;21.024;2023-05-23T08:55:28;74845.97;;;-141.45;38.13
31403;BME280;18039;52.188;21.024;2023-05-23T08:57:58;74845.97;;;-141.45;37.92
31403;BME280;18039;52.188;21.024;2023-05-23T09:00:43;74850.03;;;-141.45;37.42
31403;BME280;18039;52.188;21.024;2023-05-23T09:03:11;74850.03;;;-141.45;36.69
31403;BME280;18039;52.188;21.024;2023-05-23T09:05:48;74841.94;;;-141.45;36.85
31403;BME280;18039;52.188;21.024;2023-05-23T09:08:17;74815.59;;;-141.45;36.49
31403;BME280;18039;52.188;21.024;2023-05-23T09:10:49;74789.25;;;-141.45;35.79
31403;BME280;18039;52.188;21.024;2023-05-23T09:13:17;74764.94;;;-141.45;36.02
31403;BME280;18039;52.188;21.024;2023-05-23T09:16:01;74744.69;;;-141.45;35.43
31403;BME280;18039;52.188;21.024;2023-05-23T09:18:43;74728.47;;;-141.45;35.45
31403;BME280;18039;52.188;21.024;2023-05-23T09:21:13;74712.25;;;-141.45;34.10
31403;BME280;18039;52.188;21.024;2023-05-23T09:23:55;74700.09;;;-141.45;33.87
31403;BME280;18039;52.188;21.024;2023-05-23T09:26:22;74687.94;;;-141.45;34.42
31403;BME280;18039;52.188;21.024;2023-05-23T09:28:50;74679.84;;;-141.45;34.26
31403;BME280;18039;52.188;21.024;2023-05-23T09:31:17;74683.91;;;-141.45;33.00
31403;BME280;18039;52.188;21.024;2023-05-23T09:33:46;74677.81;;;-141.45;33.84
31403;BME280;18039;52.188;21.024;2023-05-23T09:36:16;74675.78;;;-141.45;33.67
31403;BME280;18039;52.188;21.024;2023-05-23T09:38:45;74659.59;;;-141.45;33.39
31403;BME280;18039;52.188;21.024;2023-05-23T09:41:13;74655.53;;;-141.45;33.58
31403;BME280;18039;52.188;21.024;2023-05-23T09:43:51;74679.84;;;-141.45;33.69
31403;BME280;18039;52.188;21.024;2023-05-23T09:46:21;74667.69;;;-141.45;33.84
31403;BME280;18039;52.188;21.024;2023-05-23T09:48:49;74659.59;;;-141.45;33.63
31403;BME280;18039;52.188;21.024;2023-05-23T09:51:20;74659.59;;;-141.45;33.82
31403;BME280;18039;52.188;21.024;2023-05-23T09:53:48;74655.53;;;-141.45;33.70
31403;BME280;18039;52.188;21.024;2023-05-23T09:56:17;74645.41;;;-141.45;33.43
31403;BME280;18039;52.188;21.024;2023-05-23T09:58:48;74625.16;;;-141.45;33.25
31403;BME280;18039;52.188;21.024;2023-05-23T10:01:16;74619.06;;;-141.45;32.98
31403;BME280;18039;52.188;21.024;2023-05-23T10:03:48;74627.16;;;-141.45;32.79
31403;BME280;18039;52.188;21.024;2023-05-23T10:06:31;74619.06;;;-141.45;32.88
31403;BME280;18039;52.188;21.024;2023-05-23T10:09:04;74610.97;;;-141.45;32.75
31403;BME280;18039;52.188;21.024;2023-05-23T10:14:02;74574.50;;;-141.45;32.65
31403;BME280;18039;52.188;21.024;2023-05-23T10:16:46;74566.41;;;-141.45;32.63
31403;BME280;18039;52.188;21.024;2023-05-23T10:21:53;74574.50;;;-141.45;32.23
31403;BME280;18039;52.188;21.024;2023-05-23T10:24:23;74582.59;;;-141.45;31.84
31403;BME280;18039;52.188;21.024;2023-05-23T10:26:52;74594.75;;;-141.45;32.71
31403;BME280;18039;52.188;21.024;2023-05-23T10:29:21;74582.59;;;-141.45;33.23
31403;BME280;18039;52.188;21.024;2023-05-23T10:31:50;74586.66;;;-141.45;32.70
31403;BME280;18039;52.188;21.024;2023-05-23T10:37:05;74594.75;;;-141.45;32.82
31403;BME280;18039;52.188;21.024;2023-05-23T10:42:16;74586.66;;;-141.45;33.39
31403;BME280;18039;52.188;21.024;2023-05-23T10:44:45;74586.66;;;-141.45;32.53
31403;BME280;18039;52.188;21.024;2023-05-23T10:47:24;74582.59;;;-141.45;33.11
31403;BME280;18039;52.188;21.024;2023-05-23T10:49:54;74582.59;;;-141.45;32.50
31403;BME280;18039;52.188;21.024;2023-05-23T10:52:23;74574.50;;;-141.45;32.83
31403;BME280;18039;52.188;21.024;2023-05-23T10:54:54;74566.41;;;-141.45;32.91
31403;BME280;18039;52.188;21.024;2023-05-23T10:57:25;74562.34;;;-141.45;32.60
31403;BME280;18039;52.188;21.024;2023-05-23T10:59:54;74542.09;;;-141.45;33.35
31403;BME280;18039;52.188;21.024;2023-05-23T11:02:27;74531.94;;;-141.45;32.37
31403;BME280;18039;52.188;21.024;2023-05-23T11:07:43;74497.50;;;-141.45;32.53
31403;BME280;18039;52.188;21.024;2023-05-23T11:10:12;74505.63;;;-141.45;32.12
31403;BME280;18039;52.188;21.024;2023-05-23T11:12:43;74509.66;;;-141.45;32.50
31403;BME280;18039;52.188;21.024;2023-05-23T11:17:57;74471.19;;;-141.45;32.90
31403;BME280;18039;52.188;21.024;2023-05-23T11:20:25;74479.28;;;-141.45;32.71
31403;BME280;18039;52.188;21.024;2023-05-23T11:23:02;74493.47;;;-141.45;32.56
31403;BME280;18039;52.188;21.024;2023-05-23T11:28:11;74501.56;;;-141.45;32.41
31403;BME280;18039;52.188;21.024;2023-05-23T11:30:39;74505.63;;;-141.45;31.97
31403;BME280;18039;52.188;21.024;2023-05-23T11:33:12;74489.41;;;-141.45;31.75
31403;BME280;18039;52.188;21.024;2023-05-23T11:35:47;74489.41;;;-141.45;33.11
31403;BME280;18039;52.188;21.024;2023-05-23T11:38:14;74481.31;;;-141.45;32.57
31403;BME280;18039;52.188;21.024;2023-05-23T11:40:45;74481.31;;;-141.45;31.50
31403;BME280;18039;52.188;21.024;2023-05-23T11:43:14;74489.41;;;-141.45;31.69
31403;BME280;18039;52.188;21.024;2023-05-23T11:45:42;74481.31;;;-141.45;31.87
31403;BME280;18039;52.188;21.024;2023-05-23T11:48:15;74465.09;;;-141.45;31.65
31403;BME280;18039;52.188;21.024;2023-05-23T11:50:53;74450.91;;;-141.45;31.97
31403;BME280;18039;52.188;21.024;2023-05-23T11:53:22;74440.78;;;-141.45;31.64
31403;BME280;18039;52.188;21.024;2023-05-23T11:55:57;74432.69;;;-141.45;31.53
31403;BME280;18039;52.188;21.024;2023-05-23T11:58:34;74428.63;;;-141.45;31.73
31403;BME280;18039;52.188;21.024;2023-05-23T12:01:09;74436.72;;;-141.45;31.28
31403;BME280;18039;52.188;21.024;2023-05-23T12:03:47;74436.72;;;-141.45;30.82
31403;BME280;18039;52.188;21.024;2023-05-23T12:06:19;74428.63;;;-141.45;30.63
31403;BME280;18039;52.188;21.024;2023-05-23T12:08:47;74477.25;;;-141.45;31.72
31403;BME280;18039;52.188;21.024;2023-05-23T12:11:14;74469.16;;;-141.45;31.48
31403;BME280;18039;52.188;21.024;2023-05-23T12:13:42;74465.09;;;-141.45;31.43
31403;BME280;18039;52.188;21.024;2023-05-23T12:16:12;74461.03;;;-141.45;32.10
31403;BME280;18039;52.188;21.024;2023-05-23T12:18:41;74440.78;;;-141.45;31.89
31403;BME280;18039;52.188;21.024;2023-05-23T12:21:09;74420.53;;;-141.45;31.29
31403;BME280;18039;52.188;21.024;2023-05-23T12:23:38;74440.78;;;-141.45;31.45
31403;BME280;18039;52.188;21.024;2023-05-23T12:26:06;74416.47;;;-141.45;31.36
31403;BME280;18039;52.188;21.024;2023-05-23T12:28:39;74400.28;;;-141.45;32.14
31403;BME280;18039;52.188;21.024;2023-05-23T12:33:41;74390.16;;;-141.45;31.89
31403;BME280;18039;52.188;21.024;2023-05-23T12:36:11;74396.22;;;-141.45;31.87
31403;BME280;18039;52.188;21.024;2023-05-23T12:38:41;74436.72;;;-141.45;31.52
31403;BME280;18039;52.188;21.024;2023-05-23T12:41:15;74448.91;;;-141.45;31.09
31403;BME280;18039;52.188;21.024;2023-05-23T12:43:52;74430.66;;;-141.45;31.04
31403;BME280;18039;52.188;21.024;2023-05-23T12:46:21;74404.31;;;-141.45;31.19
31403;BME280;18039;52.188;21.024;2023-05-23T12:48:49;74404.31;;;-141.45;31.17
31403;BME280;18039;52.188;21.024;2023-05-23T12:51:17;74422.56;;;-141.45;31.24
31403;BME280;18039;52.188;21.024;2023-05-23T12:53:45;74450.91;;;-141.45;31.53
31403;BME280;18039;52.188;21.024;2023-05-23T12:56:12;74436.72;;;-141.45;31.50
31403;BME280;18039;52.188;21.024;2023-05-23T12:58:39;74428.63;;;-141.45;31.65
31403;BME280;18039;52.188;21.024;2023-05-23T13:01:07;74477.25;;;-141.45;32.62
31403;BME280;18039;52.188;21.024;2023-05-23T13:03:35;74477.25;;;-141.45;32.52
31403;BME280;18039;52.188;21.024;2023-05-23T13:06:02;74485.34;;;-141.45;32.59
31403;BME280;18039;52.188;21.024;2023-05-23T13:08:30;74473.19;;;-141.45;32.48